Time;durP1;ratioP1;P1;durP2;ratioP2;P2;SDS_P1;SDS_P2;PMS_P1;PMS_P2;Temp;Humidity;BMP_temperature;BMP_pressure;BME280_temperature;BME280_humidity;BME280_pressure;Samples;Min_cycle;Max_cycle;Signal;HPM_P1;HPM_P2
2022/10/18 00:02:28;;;;;;;43.22;18.17;;;;;;;;;;6287392;28;20066;-64
2022/10/18 00:05:29;;;;;;;44.28;17.77;;;;;;;;;;6289608;28;20037;-64
2022/10/18 00:08:29;;;;;;;47.05;19.23;;;;;;;;;;6288621;28;20487;-64
2022/10/18 00:11:30;;;;;;;59.65;24.02;;;;;;;;;;6289514;28;20044;-64
2022/10/18 00:14:31;;;;;;;63.05;24.30;;;;;;;;;;6286873;28;20037;-64
2022/10/18 00:17:34;;;;;;;68.78;27.60;;;;;;;;;;6285414;28;20135;-65
2022/10/18 00:20:34;;;;;;;89.03;30.63;;;;;;;;;;6287667;28;20143;-65
2022/10/18 00:23:35;;;;;;;58.22;24.55;;;;;;;;;;6288513;28;20052;-64
2022/10/18 00:26:35;;;;;;;52.70;22.40;;;;;;;;;;6287327;28;20052;-64
2022/10/18 00:29:36;;;;;;;41.03;19.13;;;;;;;;;;6285745;28;20045;-64
2022/10/18 00:32:40;;;;;;;40.33;18.92;;;;;;;;;;6291284;28;20055;-64
2022/10/18 00:35:41;;;;;;;45.13;21.40;;;;;;;;;;6285646;28;20071;-64
2022/10/18 00:38:43;;;;;;;43.90;19.58;;;;;;;;;;6285848;28;20056;-65
2022/10/18 00:41:45;;;;;;;42.45;19.48;;;;;;;;;;6285584;28;20483;-64
2022/10/18 00:44:45;;;;;;;42.80;17.42;;;;;;;;;;6291251;28;20044;-64
2022/10/18 00:47:59;;;;;;;35.30;16.75;;;;;;;;;;6291114;28;20463;-64
2022/10/18 00:51:00;;;;;;;36.88;16.23;;;;;;;;;;6285988;28;20075;-64
2022/10/18 00:54:01;;;;;;;35.65;16.55;;;;;;;;;;6287321;28;20079;-64
2022/10/18 00:57:02;;;;;;;39.55;15.25;;;;;;;;;;6286412;28;20052;-64
2022/10/18 01:00:08;;;;;;;31.10;14.17;;;;;;;;;;6292178;28;20078;-65
2022/10/18 01:03:09;;;;;;;33.97;13.88;;;;;;;;;;6285588;28;20070;-64
2022/10/18 01:06:10;;;;;;;29.27;13.32;;;;;;;;;;6290145;28;20049;-64
2022/10/18 01:09:25;;;;;;;32.42;14.18;;;;;;;;;;6292470;28;20098;-64
2022/10/18 01:12:50;;;;;;;29.20;13.70;;;;;;;;;;6290267;28;20121;-64
2022/10/18 01:16:06;;;;;;;32.00;14.15;;;;;;;;;;6285404;28;20048;-64
2022/10/18 01:19:38;;;;;;;29.58;13.93;;;;;;;;;;6288754;28;20049;-65
2022/10/18 01:22:44;;;;;;;29.25;12.50;;;;;;;;;;6289195;28;20415;-65
2022/10/18 01:26:00;;;;;;;26.50;12.95;;;;;;;;;;6284224;28;20136;-65
2022/10/18 01:29:22;;;;;;;27.30;12.55;;;;;;;;;;6282390;28;20053;-64
2022/10/18 01:32:27;;;;;;;29.13;12.35;;;;;;;;;;6284517;28;20058;-64
2022/10/18 01:35:35;;;;;;;26.52;11.35;;;;;;;;;;6284484;28;20045;-64
2022/10/18 01:38:36;;;;;;;25.67;12.43;;;;;;;;;;6281376;28;20098;-65
2022/10/18 01:41:39;;;;;;;24.50;12.00;;;;;;;;;;6285590;28;20052;-65
2022/10/18 01:44:41;;;;;;;22.13;11.55;;;;;;;;;;6284616;28;20471;-64
2022/10/18 01:47:44;;;;;;;25.43;12.23;;;;;;;;;;6285444;28;20051;-65
2022/10/18 01:50:45;;;;;;;28.50;12.05;;;;;;;;;;6284856;28;20125;-64
2022/10/18 01:53:45;;;;;;;23.25;11.10;;;;;;;;;;6285213;28;20064;-65
2022/10/18 01:56:53;;;;;;;25.17;12.02;;;;;;;;;;6282928;28;20539;-65
2022/10/18 02:00:21;;;;;;;23.88;11.07;;;;;;;;;;6281979;28;20040;-65
2022/10/18 02:03:24;;;;;;;25.88;11.50;;;;;;;;;;6283558;28;20131;-65
2022/10/18 02:06:30;;;;;;;21.40;10.23;;;;;;;;;;6285100;28;20071;-66
2022/10/18 02:09:38;;;;;;;22.02;10.55;;;;;;;;;;6285350;28;20507;-65
2022/10/18 02:12:41;;;;;;;20.55;10.27;;;;;;;;;;6289559;28;20048;-65
2022/10/18 02:15:46;;;;;;;23.00;10.68;;;;;;;;;;6288109;28;20078;-65
2022/10/18 02:18:56;;;;;;;27.98;10.80;;;;;;;;;;6289812;28;20091;-65
2022/10/18 02:21:57;;;;;;;23.95;10.85;;;;;;;;;;6289990;28;20144;-65
2022/10/18 02:25:03;;;;;;;21.98;10.45;;;;;;;;;;6294116;28;20053;-65
2022/10/18 02:28:04;;;;;;;22.35;10.38;;;;;;;;;;6288755;28;20187;-65
2022/10/18 02:31:44;;;;;;;25.33;10.55;;;;;;;;;;6289255;28;20484;-65
2022/10/18 02:34:58;;;;;;;26.75;10.95;;;;;;;;;;6287965;28;20689;-65
2022/10/18 02:38:01;;;;;;;23.17;10.80;;;;;;;;;;6289314;28;20102;-65
2022/10/18 02:41:02;;;;;;;21.20;10.30;;;;;;;;;;6287137;28;20045;-65
2022/10/18 02:44:02;;;;;;;26.63;12.15;;;;;;;;;;6287595;28;20135;-65
2022/10/18 02:47:05;;;;;;;23.80;10.07;;;;;;;;;;6288455;28;20569;-65
2022/10/18 02:50:06;;;;;;;20.50;10.93;;;;;;;;;;6289896;28;20059;-65
2022/10/18 02:53:06;;;;;;;23.55;11.02;;;;;;;;;;6289383;28;20393;-65
2022/10/18 02:56:07;;;;;;;22.60;11.38;;;;;;;;;;6288816;28;20040;-65
2022/10/18 02:59:08;;;;;;;21.90;11.43;;;;;;;;;;6289941;28;20047;-65
2022/10/18 03:02:09;;;;;;;24.67;12.25;;;;;;;;;;6288544;28;20483;-64
2022/10/18 03:05:09;;;;;;;29.42;13.65;;;;;;;;;;6287080;28;20139;-65
2022/10/18 03:08:10;;;;;;;27.10;12.00;;;;;;;;;;6288330;28;20048;-65
2022/10/18 03:11:10;;;;;;;28.58;13.35;;;;;;;;;;6296510;28;20735;-65
2022/10/18 03:14:11;;;;;;;34.45;14.13;;;;;;;;;;6288632;28;20037;-64
2022/10/18 03:17:11;;;;;;;32.80;13.95;;;;;;;;;;6288346;28;20521;-65
2022/10/18 03:20:12;;;;;;;29.73;12.52;;;;;;;;;;6290355;28;20414;-65
2022/10/18 03:23:13;;;;;;;31.10;13.30;;;;;;;;;;6289870;28;20127;-65
2022/10/18 03:26:13;;;;;;;32.92;13.57;;;;;;;;;;6286821;28;20560;-65
2022/10/18 03:29:14;;;;;;;29.00;12.98;;;;;;;;;;6288341;28;20151;-65
2022/10/18 03:32:14;;;;;;;30.10;13.35;;;;;;;;;;6287978;28;20045;-65
2022/10/18 03:35:15;;;;;;;30.75;13.18;;;;;;;;;;6287074;28;20135;-65
2022/10/18 03:38:16;;;;;;;27.65;13.13;;;;;;;;;;6286687;28;20545;-65
2022/10/18 03:41:16;;;;;;;28.63;12.05;;;;;;;;;;6289959;28;20064;-64
2022/10/18 03:44:17;;;;;;;22.42;10.95;;;;;;;;;;6287473;28;20461;-64
2022/10/18 03:47:18;;;;;;;24.20;11.63;;;;;;;;;;6289142;28;20135;-65
2022/10/18 03:50:19;;;;;;;29.17;12.48;;;;;;;;;;6287086;28;20040;-65
2022/10/18 03:53:19;;;;;;;29.90;12.23;;;;;;;;;;6286696;28;20140;-65
2022/10/18 03:56:20;;;;;;;25.83;12.70;;;;;;;;;;6286851;28;20687;-64
2022/10/18 03:59:21;;;;;;;25.67;12.07;;;;;;;;;;6290926;28;20044;-64
2022/10/18 04:02:22;;;;;;;30.13;12.63;;;;;;;;;;6287955;28;20059;-64
2022/10/18 04:05:23;;;;;;;25.75;12.25;;;;;;;;;;6283866;28;20474;-64
2022/10/18 04:08:23;;;;;;;28.20;12.57;;;;;;;;;;6289493;28;20075;-64
2022/10/18 04:11:24;;;;;;;27.00;12.60;;;;;;;;;;6286841;28;20068;-64
2022/10/18 04:14:24;;;;;;;29.05;12.85;;;;;;;;;;6289165;28;20048;-64
2022/10/18 04:17:25;;;;;;;28.70;11.90;;;;;;;;;;6287708;28;20044;-64
2022/10/18 04:20:26;;;;;;;25.15;11.88;;;;;;;;;;6287320;28;20040;-64
2022/10/18 04:23:26;;;;;;;23.98;11.18;;;;;;;;;;6287680;28;20084;-65
2022/10/18 04:26:27;;;;;;;26.15;12.90;;;;;;;;;;6287387;28;20438;-64
2022/10/18 04:29:27;;;;;;;22.88;11.18;;;;;;;;;;6291336;28;20044;-64
2022/10/18 04:32:28;;;;;;;26.35;11.90;;;;;;;;;;6284354;28;20047;-64
2022/10/18 04:35:28;;;;;;;29.27;12.02;;;;;;;;;;6282262;28;20041;-64
2022/10/18 04:38:29;;;;;;;35.70;12.48;;;;;;;;;;6285887;28;20506;-64
2022/10/18 04:41:30;;;;;;;28.73;13.20;;;;;;;;;;6283743;28;20491;-64
2022/10/18 04:44:30;;;;;;;43.28;13.55;;;;;;;;;;6283852;28;20419;-64
2022/10/18 04:47:31;;;;;;;29.58;13.10;;;;;;;;;;6286529;28;20068;-64
2022/10/18 04:50:31;;;;;;;33.35;12.68;;;;;;;;;;6286505;28;20115;-64
2022/10/18 04:53:32;;;;;;;25.05;12.38;;;;;;;;;;6285149;28;20054;-64
2022/10/18 04:56:32;;;;;;;29.90;13.25;;;;;;;;;;6282949;28;20044;-64
2022/10/18 04:59:33;;;;;;;27.42;13.82;;;;;;;;;;6285437;28;20045;-64
2022/10/18 05:02:33;;;;;;;27.45;13.15;;;;;;;;;;6285998;28;20055;-64
2022/10/18 05:05:34;;;;;;;29.30;13.55;;;;;;;;;;6284427;28;20045;-64
2022/10/18 05:08:35;;;;;;;27.23;12.85;;;;;;;;;;6286972;28;20137;-64
2022/10/18 05:11:36;;;;;;;32.53;13.60;;;;;;;;;;6287950;28;20048;-64
2022/10/18 05:14:37;;;;;;;34.17;15.57;;;;;;;;;;6285095;28;20048;-64
2022/10/18 05:17:37;;;;;;;33.03;14.00;;;;;;;;;;6288354;28;20481;-64
2022/10/18 05:20:38;;;;;;;28.08;12.88;;;;;;;;;;6290241;28;20406;-64
2022/10/18 05:23:39;;;;;;;34.63;19.58;;;;;;;;;;6288010;28;20131;-64
2022/10/18 05:26:40;;;;;;;33.10;16.17;;;;;;;;;;6285038;28;20044;-64
2022/10/18 05:29:40;;;;;;;27.63;13.18;;;;;;;;;;6279424;28;20080;-64
2022/10/18 05:32:41;;;;;;;32.55;13.10;;;;;;;;;;6279822;28;20044;-64
2022/10/18 05:35:41;;;;;;;29.52;14.57;;;;;;;;;;6285114;28;20784;-65
2022/10/18 05:38:42;;;;;;;36.90;15.10;;;;;;;;;;6285089;28;20130;-64
2022/10/18 05:41:43;;;;;;;40.80;19.90;;;;;;;;;;6287550;28;20040;-65
2022/10/18 05:44:43;;;;;;;36.53;14.52;;;;;;;;;;6285040;28;20044;-65
2022/10/18 05:47:44;;;;;;;32.20;13.63;;;;;;;;;;6285116;28;20601;-64
2022/10/18 05:50:45;;;;;;;27.95;13.93;;;;;;;;;;6286212;28;20047;-64
2022/10/18 05:53:46;;;;;;;30.25;13.35;;;;;;;;;;6284755;28;20047;-65
2022/10/18 05:56:46;;;;;;;32.58;13.90;;;;;;;;;;6284185;28;20453;-64
2022/10/18 05:59:47;;;;;;;33.35;13.60;;;;;;;;;;6286065;28;20049;-64
2022/10/18 06:02:47;;;;;;;31.40;13.73;;;;;;;;;;6285418;28;20044;-64
2022/10/18 06:05:48;;;;;;;32.15;13.85;;;;;;;;;;6290928;28;20040;-65
2022/10/18 06:08:49;;;;;;;28.60;13.25;;;;;;;;;;6292495;28;20066;-64
2022/10/18 06:11:50;;;;;;;32.17;13.55;;;;;;;;;;6292308;28;20080;-63
2022/10/18 06:14:50;;;;;;;28.48;14.18;;;;;;;;;;6290928;28;20051;-64
2022/10/18 06:17:51;;;;;;;36.13;15.68;;;;;;;;;;6291589;28;20519;-63
2022/10/18 06:20:58;;;;;;;33.53;13.70;;;;;;;;;;6286365;28;20048;-64
2022/10/18 06:23:59;;;;;;;30.40;13.73;;;;;;;;;;6283945;28;20477;-63
2022/10/18 06:27:03;;;;;;;30.42;14.15;;;;;;;;;;6283902;28;20650;-63
2022/10/18 06:30:04;;;;;;;31.52;14.38;;;;;;;;;;6286771;28;20150;-63
2022/10/18 06:33:04;;;;;;;30.40;14.55;;;;;;;;;;6284687;28;20499;-63
2022/10/18 06:36:25;;;;;;;39.10;13.52;;;;;;;;;;6281003;28;20049;-64
2022/10/18 06:39:26;;;;;;;32.95;13.88;;;;;;;;;;6286313;28;20805;-63
2022/10/18 06:42:27;;;;;;;34.10;15.10;;;;;;;;;;6284871;28;20044;-64
2022/10/18 06:45:27;;;;;;;33.35;13.68;;;;;;;;;;6284364;28;20041;-64
2022/10/18 06:48:29;;;;;;;34.85;14.82;;;;;;;;;;6281163;28;20306;-64
2022/10/18 06:51:30;;;;;;;31.20;14.07;;;;;;;;;;6284130;28;20040;-64
2022/10/18 06:54:30;;;;;;;35.63;15.20;;;;;;;;;;6284792;28;20480;-65
2022/10/18 06:57:31;;;;;;;32.95;14.15;;;;;;;;;;6279407;28;20090;-64
2022/10/18 07:00:31;;;;;;;38.25;15.20;;;;;;;;;;6281614;28;21802;-64
2022/10/18 07:03:33;;;;;;;35.63;15.32;;;;;;;;;;6284196;28;20052;-65
2022/10/18 07:06:34;;;;;;;;;;;;;;;;;;6285999;28;20075;-65
2022/10/18 07:09:34;;;;;;;37.13;14.98;;;;;;;;;;6289605;28;19985;-65
2022/10/18 07:12:35;;;;;;;35.88;14.43;;;;;;;;;;6287680;28;20041;-65
2022/10/18 07:15:37;;;;;;;38.67;14.75;;;;;;;;;;6287309;28;20056;-65
2022/10/18 07:18:40;;;;;;;39.22;14.50;;;;;;;;;;6286775;28;20045;-65
2022/10/18 07:21:40;;;;;;;33.95;14.73;;;;;;;;;;6287117;28;20056;-65
2022/10/18 07:24:41;;;;;;;35.08;14.68;;;;;;;;;;6287262;28;20052;-65
2022/10/18 07:27:42;;;;;;;29.83;14.45;;;;;;;;;;6287667;28;20045;-65
2022/10/18 07:30:43;;;;;;;34.27;15.87;;;;;;;;;;6291343;28;20140;-64
2022/10/18 07:33:43;;;;;;;34.63;14.63;;;;;;;;;;6276095;28;20671;-64
2022/10/18 07:36:44;;;;;;;35.28;14.57;;;;;;;;;;6287609;28;20063;-65
2022/10/18 07:39:44;;;;;;;31.20;13.70;;;;;;;;;;6294727;28;20135;-63
2022/10/18 07:42:45;;;;;;;35.63;15.40;;;;;;;;;;6294199;28;20478;-63
2022/10/18 07:46:00;;;;;;;28.85;13.82;;;;;;;;;;6293856;28;20406;-64
2022/10/18 07:49:00;;;;;;;29.15;12.90;;;;;;;;;;6293287;28;20040;-65
2022/10/18 07:52:01;;;;;;;29.35;13.57;;;;;;;;;;6294237;28;20041;-65
2022/10/18 07:55:01;;;;;;;28.63;13.95;;;;;;;;;;6294782;28;20056;-64
2022/10/18 07:58:02;;;;;;;28.17;13.30;;;;;;;;;;6292798;28;20093;-63
2022/10/18 08:01:07;;;;;;;27.77;12.32;;;;;;;;;;6294107;28;20080;-64
2022/10/18 08:04:07;;;;;;;32.25;13.00;;;;;;;;;;6292098;28;20051;-64
2022/10/18 08:07:08;;;;;;;27.95;13.00;;;;;;;;;;6292747;28;20044;-64
2022/10/18 08:10:08;;;;;;;22.60;12.32;;;;;;;;;;6293973;28;20049;-64
2022/10/18 08:13:09;;;;;;;26.13;12.45;;;;;;;;;;6294036;28;20064;-64
2022/10/18 08:16:17;;;;;;;26.10;12.23;;;;;;;;;;6292923;28;20036;-63
2022/10/18 08:19:17;;;;;;;25.95;12.70;;;;;;;;;;6292430;28;20158;-63
2022/10/18 08:22:18;;;;;;;30.70;13.18;;;;;;;;;;6294160;28;20048;-64
2022/10/18 08:25:18;;;;;;;23.45;11.05;;;;;;;;;;6293810;28;20051;-62
2022/10/18 08:28:19;;;;;;;25.52;11.90;;;;;;;;;;6291922;28;20037;-64
2022/10/18 08:31:20;;;;;;;27.55;11.95;;;;;;;;;;6293703;28;20048;-64
2022/10/18 08:34:20;;;;;;;25.05;11.80;;;;;;;;;;6293591;28;20044;-64
2022/10/18 08:37:21;;;;;;;28.55;11.98;;;;;;;;;;6292021;28;20491;-64
2022/10/18 08:40:22;;;;;;;24.17;11.70;;;;;;;;;;6292047;28;21005;-64
2022/10/18 08:43:45;;;;;;;24.05;11.45;;;;;;;;;;6293132;28;20403;-64
2022/10/18 08:46:48;;;;;;;28.45;11.60;;;;;;;;;;6287399;28;20049;-64
2022/10/18 08:49:53;;;;;;;22.98;11.98;;;;;;;;;;6285923;28;20147;-65
2022/10/18 08:52:54;;;;;;;22.48;10.85;;;;;;;;;;6286104;28;20044;-64
2022/10/18 08:56:04;;;;;;;26.33;11.88;;;;;;;;;;6287523;28;20048;-66
2022/10/18 08:59:09;;;;;;;21.65;10.15;;;;;;;;;;6291476;28;20056;-65
2022/10/18 09:03:01;;;;;;;25.60;10.35;;;;;;;;;;6291203;28;20479;-64
2022/10/18 09:06:15;;;;;;;21.67;10.93;;;;;;;;;;6240141;28;20052;-63
2022/10/18 09:09:42;;;;;;;24.27;10.27;;;;;;;;;;6290326;28;20052;-64
2022/10/18 09:13:31;;;;;;;24.02;11.23;;;;;;;;;;6292546;28;20090;-64
2022/10/18 09:16:37;;;;;;;21.65;9.98;;;;;;;;;;6255441;28;20050;-64
2022/10/18 09:19:59;;;;;;;31.40;13.45;;;;;;;;;;6291097;28;20486;-65
2022/10/18 09:23:15;;;;;;;31.27;14.70;;;;;;;;;;6292130;28;20797;-64
2022/10/18 09:26:18;;;;;;;29.35;12.07;;;;;;;;;;6291801;28;20071;-64
2022/10/18 09:30:00;;;;;;;22.83;11.13;;;;;;;;;;6291158;28;20033;-65
2022/10/18 09:33:14;;;;;;;20.58;10.15;;;;;;;;;;6290317;28;20065;-64
2022/10/18 09:36:22;;;;;;;20.63;10.18;;;;;;;;;;6291849;28;20097;-65
2022/10/18 09:39:28;;;;;;;21.30;10.27;;;;;;;;;;6291853;28;20052;-65
2022/10/18 09:42:36;;;;;;;24.45;10.77;;;;;;;;;;6291421;28;20554;-65
2022/10/18 09:45:43;;;;;;;25.60;11.95;;;;;;;;;;6291215;28;20048;-64
2022/10/18 09:49:04;;;;;;;23.05;11.00;;;;;;;;;;6291713;28;20051;-64
2022/10/18 09:52:12;;;;;;;24.15;10.60;;;;;;;;;;6291863;28;20048;-65
2022/10/18 09:55:23;;;;;;;16.77;9.90;;;;;;;;;;6291231;28;20151;-65
2022/10/18 09:58:28;;;;;;;21.02;9.38;;;;;;;;;;6290725;28;20498;-64
2022/10/18 10:01:31;;;;;;;21.80;9.85;;;;;;;;;;6291717;28;20097;-64
2022/10/18 10:04:31;;;;;;;19.35;9.70;;;;;;;;;;6292095;28;20105;-65
2022/10/18 10:07:39;;;;;;;19.77;9.32;;;;;;;;;;6289997;28;20048;-65
2022/10/18 10:10:46;;;;;;;20.27;9.85;;;;;;;;;;6291950;28;20056;-64
2022/10/18 10:13:47;;;;;;;20.63;9.77;;;;;;;;;;6292102;28;20094;-64
2022/10/18 10:16:53;;;;;;;21.30;10.20;;;;;;;;;;6282805;28;20054;-64
2022/10/18 10:20:23;;;;;;;18.00;9.25;;;;;;;;;;6284886;28;20068;-64
2022/10/18 10:23:34;;;;;;;21.50;9.80;;;;;;;;;;6266431;28;20056;-65
2022/10/18 10:26:37;;;;;;;18.70;9.60;;;;;;;;;;6284949;28;20117;-64
2022/10/18 10:29:44;;;;;;;19.65;9.90;;;;;;;;;;6282541;28;20098;-64
2022/10/18 10:32:48;;;;;;;20.08;10.05;;;;;;;;;;6280765;28;20044;-64
2022/10/18 10:35:57;;;;;;;18.20;9.65;;;;;;;;;;6282468;28;20056;-65
2022/10/18 10:39:03;;;;;;;18.25;9.00;;;;;;;;;;6284401;28;20131;-64
2022/10/18 10:42:04;;;;;;;19.48;9.43;;;;;;;;;;6286770;28;20057;-64
2022/10/18 10:45:05;;;;;;;17.97;9.13;;;;;;;;;;6290293;28;20056;-64
2022/10/18 10:48:18;;;;;;;22.37;8.97;;;;;;;;;;6286109;28;20052;-65
2022/10/18 10:51:37;;;;;;;18.52;9.10;;;;;;;;;;6285766;28;20041;-64
2022/10/18 10:54:38;;;;;;;26.73;9.63;;;;;;;;;;6285916;28;20545;-65
2022/10/18 10:57:43;;;;;;;21.08;11.60;;;;;;;;;;6286830;28;20098;-64
2022/10/18 11:00:44;;;;;;;19.90;10.55;;;;;;;;;;6287937;28;20041;-64
2022/10/18 11:03:51;;;;;;;27.57;10.73;;;;;;;;;;6286873;28;20110;-64
2022/10/18 11:07:08;;;;;;;17.73;9.60;;;;;;;;;;6288921;28;20036;-63
2022/10/18 11:10:09;;;;;;;22.25;10.10;;;;;;;;;;6290283;28;20086;-64
2022/10/18 11:13:38;;;;;;;17.30;9.17;;;;;;;;;;6288531;28;20052;-64
2022/10/18 11:16:47;;;;;;;20.10;9.60;;;;;;;;;;6286176;28;20128;-64
2022/10/18 11:20:04;;;;;;;21.35;9.98;;;;;;;;;;6288771;28;20478;-64
2022/10/18 11:23:06;;;;;;;23.77;10.52;;;;;;;;;;6284859;28;20059;-64
2022/10/18 11:26:09;;;;;;;21.63;9.52;;;;;;;;;;6291085;28;20044;-65
2022/10/18 11:29:41;;;;;;;25.85;10.98;;;;;;;;;;6286965;28;20048;-65
2022/10/18 11:32:54;;;;;;;19.35;10.13;;;;;;;;;;6279952;28;20091;-64
2022/10/18 11:36:06;;;;;;;23.00;9.40;;;;;;;;;;6286929;28;20645;-63
2022/10/18 11:39:36;;;;;;;17.27;9.45;;;;;;;;;;6285804;28;20140;-64
2022/10/18 11:42:43;;;;;;;23.27;10.25;;;;;;;;;;6283852;28;20453;-65
2022/10/18 11:46:10;;;;;;;21.40;11.63;;;;;;;;;;6288850;28;20048;-64
2022/10/18 11:49:38;;;;;;;23.92;11.90;;;;;;;;;;6283099;28;20044;-64
2022/10/18 11:52:48;;;;;;;24.15;10.70;;;;;;;;;;6279887;28;20101;-65
2022/10/18 11:56:03;;;;;;;18.35;9.73;;;;;;;;;;6262526;28;20045;-64
2022/10/18 11:59:36;;;;;;;18.00;9.20;;;;;;;;;;6263786;28;20056;-64
2022/10/18 12:02:56;;;;;;;17.75;9.82;;;;;;;;;;6271959;28;20072;-64
2022/10/18 12:06:02;;;;;;;18.80;9.20;;;;;;;;;;6269210;28;20115;-64
2022/10/18 12:09:35;;;;;;;24.20;10.30;;;;;;;;;;6269304;28;20135;-64
2022/10/18 12:12:48;;;;;;;18.08;9.52;;;;;;;;;;6266623;28;20049;-63
2022/10/18 12:15:50;;;;;;;20.35;10.00;;;;;;;;;;6270650;28;20048;-64
2022/10/18 12:19:02;;;;;;;21.90;10.75;;;;;;;;;;6273778;28;20130;-64
2022/10/18 12:22:21;;;;;;;16.90;9.80;;;;;;;;;;6274052;28;20645;-65
2022/10/18 12:25:22;;;;;;;18.52;10.00;;;;;;;;;;6267097;28;20597;-64
2022/10/18 12:29:01;;;;;;;18.97;10.13;;;;;;;;;;6270014;28;20134;-63
2022/10/18 12:32:08;;;;;;;19.90;10.25;;;;;;;;;;6216411;28;20907;-63
2022/10/18 12:35:14;;;;;;;18.80;9.93;;;;;;;;;;6269876;28;20045;-63
2022/10/18 12:38:28;;;;;;;23.20;10.98;;;;;;;;;;6267327;28;20407;-63
2022/10/18 12:41:32;;;;;;;21.60;10.05;;;;;;;;;;6270195;28;20059;-64
2022/10/18 12:44:34;;;;;;;20.65;10.68;;;;;;;;;;6264741;28;20047;-64
2022/10/18 12:47:35;;;;;;;24.10;10.88;;;;;;;;;;6266519;28;20051;-64
2022/10/18 12:50:38;;;;;;;21.80;10.90;;;;;;;;;;6267819;28;20040;-64
2022/10/18 12:53:41;;;;;;;21.73;10.48;;;;;;;;;;6265032;28;20045;-64
2022/10/18 12:56:42;;;;;;;23.20;10.18;;;;;;;;;;6264164;28;20067;-63
2022/10/18 12:59:43;;;;;;;;;;;;;;;;;;6262705;28;20171;-63
2022/10/18 13:02:43;;;;;;;22.48;11.48;;;;;;;;;;6267978;28;19928;-63
2022/10/18 13:05:48;;;;;;;21.60;10.50;;;;;;;;;;6268245;28;20127;-64
2022/10/18 13:09:15;;;;;;;20.35;10.63;;;;;;;;;;6266371;28;20550;-64
2022/10/18 13:12:16;;;;;;;22.90;10.90;;;;;;;;;;6263938;28;20050;-63
2022/10/18 13:15:40;;;;;;;30.73;11.83;;;;;;;;;;6266959;28;20049;-64
2022/10/18 13:18:55;;;;;;;21.33;11.25;;;;;;;;;;6269488;28;20132;-64
2022/10/18 13:22:29;;;;;;;23.35;10.52;;;;;;;;;;6267050;28;20135;-64
2022/10/18 13:26:11;;;;;;;24.92;11.48;;;;;;;;;;6264740;28;20168;-64
2022/10/18 13:29:39;;;;;;;25.85;11.13;;;;;;;;;;6230695;28;20523;-64
2022/10/18 13:32:57;;;;;;;21.70;11.23;;;;;;;;;;6265942;28;20162;-64
2022/10/18 13:36:03;;;;;;;21.95;11.95;;;;;;;;;;6266662;28;20055;-63
2022/10/18 13:39:04;;;;;;;22.80;11.75;;;;;;;;;;6265825;28;20562;-64
2022/10/18 13:42:14;;;;;;;23.38;10.82;;;;;;;;;;6265761;28;20056;-65
2022/10/18 13:45:30;;;;;;;28.58;12.10;;;;;;;;;;6269464;28;20052;-64
2022/10/18 13:48:30;;;;;;;19.48;11.07;;;;;;;;;;6272755;28;20055;-64
2022/10/18 13:51:55;;;;;;;27.97;11.17;;;;;;;;;;6267432;28;20064;-65
2022/10/18 13:55:04;;;;;;;22.90;11.45;;;;;;;;;;6266466;28;20048;-65
2022/10/18 13:58:08;;;;;;;21.85;11.52;;;;;;;;;;6266747;28;20098;-64
2022/10/18 14:01:30;;;;;;;20.67;10.95;;;;;;;;;;6268161;28;20130;-64
2022/10/18 14:04:55;;;;;;;22.35;11.10;;;;;;;;;;6266165;28;20135;-64
2022/10/18 14:08:04;;;;;;;27.55;11.68;;;;;;;;;;6267236;28;20459;-63
2022/10/18 14:11:18;;;;;;;24.58;11.45;;;;;;;;;;6266455;28;20163;-64
2022/10/18 14:14:28;;;;;;;23.20;11.10;;;;;;;;;;6268297;28;20135;-64
2022/10/18 14:17:42;;;;;;;25.08;11.23;;;;;;;;;;6269986;28;20052;-62
2022/10/18 14:20:50;;;;;;;23.75;11.55;;;;;;;;;;6272338;28;20060;-65
2022/10/18 14:23:51;;;;;;;25.23;12.05;;;;;;;;;;6267831;28;20097;-64
2022/10/18 14:27:12;;;;;;;24.05;11.48;;;;;;;;;;6272180;28;20078;-64
2022/10/18 14:30:16;;;;;;;24.77;11.38;;;;;;;;;;6268956;28;20174;-63
2022/10/18 14:33:44;;;;;;;23.33;12.50;;;;;;;;;;6271078;28;20052;-63
2022/10/18 14:36:47;;;;;;;27.45;13.05;;;;;;;;;;6267600;28;20053;-64
2022/10/18 14:39:47;;;;;;;22.27;11.80;;;;;;;;;;6265873;28;20447;-63
2022/10/18 14:42:48;;;;;;;30.80;12.83;;;;;;;;;;6273474;28;20049;-63
2022/10/18 14:45:49;;;;;;;25.47;11.97;;;;;;;;;;6271998;28;20051;-63
2022/10/18 14:49:00;;;;;;;23.93;12.60;;;;;;;;;;6275961;28;20060;-63
2022/10/18 14:52:01;;;;;;;29.43;13.17;;;;;;;;;;6272551;28;21284;-63
2022/10/18 14:55:02;;;;;;;27.80;13.80;;;;;;;;;;6271557;28;20392;-63
2022/10/18 14:58:13;;;;;;;25.48;13.77;;;;;;;;;;6272761;28;20732;-63
2022/10/18 15:01:23;;;;;;;27.05;13.18;;;;;;;;;;6272618;28;20084;-63
2022/10/18 15:04:34;;;;;;;24.23;13.10;;;;;;;;;;6266823;28;20044;-63
2022/10/18 15:07:35;;;;;;;29.70;12.88;;;;;;;;;;6272911;28;20128;-63
2022/10/18 15:10:36;;;;;;;24.50;13.30;;;;;;;;;;6272959;28;20190;-64
2022/10/18 15:13:54;;;;;;;29.00;13.33;;;;;;;;;;6266931;28;20976;-64
2022/10/18 15:17:03;;;;;;;28.23;12.98;;;;;;;;;;6275438;28;20061;-63
2022/10/18 15:20:27;;;;;;;24.80;13.35;;;;;;;;;;6274004;28;20488;-63
2022/10/18 15:23:30;;;;;;;24.67;12.38;;;;;;;;;;6272458;28;20423;-62
2022/10/18 15:26:31;;;;;;;24.58;12.48;;;;;;;;;;6270853;28;20174;-62
2022/10/18 15:29:34;;;;;;;24.20;12.93;;;;;;;;;;6272917;28;20041;-62
2022/10/18 15:32:36;;;;;;;27.83;13.05;;;;;;;;;;6269840;28;20052;-62
2022/10/18 15:35:37;;;;;;;25.65;13.60;;;;;;;;;;6270059;28;20054;-62
2022/10/18 15:38:38;;;;;;;26.67;13.27;;;;;;;;;;6267392;28;20105;-62
2022/10/18 15:41:49;;;;;;;27.63;12.82;;;;;;;;;;6274854;28;20492;-62
2022/10/18 15:44:50;;;;;;;30.70;13.20;;;;;;;;;;6268063;28;20053;-62
2022/10/18 15:48:09;;;;;;;23.30;13.23;;;;;;;;;;6272568;28;20478;-63
2022/10/18 15:51:46;;;;;;;34.08;13.13;;;;;;;;;;6275383;28;20188;-63
2022/10/18 15:54:47;;;;;;;22.77;12.70;;;;;;;;;;6269813;28;20163;-62
2022/10/18 15:57:48;;;;;;;23.58;13.23;;;;;;;;;;6273191;28;20052;-62
2022/10/18 16:00:50;;;;;;;35.47;14.17;;;;;;;;;;6273725;28;20048;-62
2022/10/18 16:03:50;;;;;;;;;;;;;;;;;;6272152;28;20485;-62
2022/10/18 16:06:51;;;;;;;34.17;13.57;;;;;;;;;;6275934;28;19920;-63
2022/10/18 16:09:52;;;;;;;27.57;14.20;;;;;;;;;;6273195;28;20466;-62
2022/10/18 16:12:52;;;;;;;27.07;13.83;;;;;;;;;;6270320;28;20040;-62
2022/10/18 16:15:58;;;;;;;33.10;13.50;;;;;;;;;;6267794;28;20052;-62
2022/10/18 16:19:00;;;;;;;28.63;14.23;;;;;;;;;;6271905;28;20514;-62
2022/10/18 16:22:01;;;;;;;32.67;14.25;;;;;;;;;;6269636;28;20057;-62
2022/10/18 16:25:01;;;;;;;28.55;14.82;;;;;;;;;;6271111;28;20072;-62
2022/10/18 16:28:02;;;;;;;27.80;14.90;;;;;;;;;;6272741;28;20181;-62
2022/10/18 16:31:03;;;;;;;27.52;15.13;;;;;;;;;;6263192;28;20476;-62
2022/10/18 16:34:04;;;;;;;29.60;15.23;;;;;;;;;;6264516;28;20152;-62
2022/10/18 16:37:04;;;;;;;35.72;17.83;;;;;;;;;;6268190;28;20044;-62
2022/10/18 16:40:25;;;;;;;38.00;15.13;;;;;;;;;;6266398;28;20472;-61
2022/10/18 16:43:26;;;;;;;31.83;15.38;;;;;;;;;;6263691;28;20070;-62
2022/10/18 16:46:30;;;;;;;33.95;16.33;;;;;;;;;;6269539;28;20136;-61
2022/10/18 16:49:30;;;;;;;35.92;18.00;;;;;;;;;;6265425;28;20098;-61
2022/10/18 16:52:31;;;;;;;31.00;15.23;;;;;;;;;;6266056;28;20084;-61
2022/10/18 16:55:32;;;;;;;54.90;20.57;;;;;;;;;;6269064;28;20044;-61
2022/10/18 16:58:33;;;;;;;;;;;;;;;;;;6268389;28;20040;-61
2022/10/18 17:01:33;;;;;;;49.05;18.98;;;;;;;;;;6263281;28;19934;-65
2022/10/18 17:04:34;;;;;;;47.72;20.20;;;;;;;;;;6266146;28;20048;-63
2022/10/18 17:07:34;;;;;;;38.38;18.20;;;;;;;;;;6272428;28;20464;-63
2022/10/18 17:10:35;;;;;;;32.20;17.15;;;;;;;;;;6271431;28;20044;-63
2022/10/18 17:13:36;;;;;;;36.22;18.02;;;;;;;;;;6271817;28;20044;-63
2022/10/18 17:16:37;;;;;;;33.05;17.17;;;;;;;;;;6273713;28;20048;-62
2022/10/18 17:19:38;;;;;;;40.03;20.13;;;;;;;;;;6270573;28;20048;-62
2022/10/18 17:22:38;;;;;;;41.55;19.02;;;;;;;;;;6269993;28;20604;-63
2022/10/18 17:25:43;;;;;;;38.03;19.60;;;;;;;;;;6272037;28;20049;-62
2022/10/18 17:28:44;;;;;;;43.03;21.92;;;;;;;;;;6268686;28;20799;-62
2022/10/18 17:31:45;;;;;;;47.80;25.13;;;;;;;;;;6268534;28;20048;-63
2022/10/18 17:34:45;;;;;;;41.10;20.05;;;;;;;;;;6270021;28;20054;-62
2022/10/18 17:37:47;;;;;;;40.45;19.20;;;;;;;;;;6274308;28;20056;-63
2022/10/18 17:40:51;;;;;;;38.08;18.92;;;;;;;;;;6269018;28;20435;-64
2022/10/18 17:43:51;;;;;;;37.72;18.02;;;;;;;;;;6266174;28;20053;-63
2022/10/18 17:46:52;;;;;;;36.78;19.02;;;;;;;;;;6272377;28;20419;-61
2022/10/18 17:49:53;;;;;;;36.70;18.67;;;;;;;;;;6272499;28;20464;-64
2022/10/18 17:52:53;;;;;;;40.40;19.83;;;;;;;;;;6266985;28;20068;-62
2022/10/18 17:55:58;;;;;;;41.05;19.25;;;;;;;;;;6269464;28;20439;-63
2022/10/18 17:59:00;;;;;;;40.47;19.88;;;;;;;;;;6269496;28;20049;-62
2022/10/18 18:02:00;;;;;;;40.58;19.58;;;;;;;;;;6267618;28;20053;-62
2022/10/18 18:05:01;;;;;;;40.92;19.60;;;;;;;;;;6266942;28;20511;-64